Muskogee, OK (74401)

12:03 PM CDT on August 29, 2015 (GMT -0500)
APRSWXNET | | Change Station
CLOSE
Current Station
Personal Weather Station
Location: Muskogee, OK
Elevation: 582 ft
Nearby Weather Stations

Elev 582 ft 35.75 °N, 95.33 °W | Updated 28 minutes ago

Clear
Clear
86 °F
Feels Like 90 °F
N
0
Wind Variable Wind from South
Gusts 5.0 mph

Today
High -- | Low -- °F
--% Chance of Precip.
Yesterday
High -- | Low -- °F
Precip. -- in
6:51 AM 7:53 PM
Full, 100% visible
Pressure 29.99 in
Visibility 9.0 miles
Clouds Clear
Heat Index 90 °F
Dew Point 69 °F
Humidity 58%
Rainfall in
Snow Depth Not available.
UV 9 out of 12
Pollen 8.20 out of 12
Air Quality Not available.
Flu Activity Not available.
METAR KMKO 291653Z AUTO 21008KT 9SM CLR 29/19 A3001 RMK AO2 SLP154 T02940194
Pressure 29.99 in
Visibility 9.0 miles
Clouds Clear
Heat Index 90 °F
Dew Point 69 °F
Humidity 58%
Rainfall in
Snow Depth Not available.
UV 9 out of 12
Pollen 8.20 out of 12
Air Quality Not available.
Flu Activity Not available.
METAR KMKO 291653Z AUTO 21008KT 9SM CLR 29/19 A3001 RMK AO2 SLP154 T02940194

10-Day Weather Forecast

×

Almanac

Astronomy

Aug. 29, 2015 Rise Set
Actual Time
Civil Twilight
Nautical Twilight
Astronomical Twilight
Moon
Length of Visible Light
Length of Day
Tomorrow will be .
, % of the Moon is Illuminated

Today's Extremes

State Highs State Lows

Community

WunderPhotos

Upload Photos

1,850,724 photos uploaded!

WunderBlogs® & News

Nearby

Air Quality

  Air Quality AQ Index Pollutant
Not available.

Snow Depth

Station Depth Elevation

Earthquake Activity

City Distance Mag. Time & Date
Minimum magnitude displayed is 2.5.

Coastal Water Temperatures

Place Temperature

Stations

Nearby Weather Stations

Station Location Temp. Windchill Dew Point Humidity Wind Precip. Elev Updated Type